sensor_id;sensor_type;location;lat;lon;timestamp;P1;durP1;ratioP1;P2;durP2;ratioP2
64387;SDS011;50709;52.648;4.764;2022-08-19T00:00:27;13.68;;;7.60;;
64387;SDS011;50709;52.648;4.764;2022-08-19T00:02:52;12.93;;;7.72;;
64387;SDS011;50709;52.648;4.764;2022-08-19T00:05:19;14.88;;;8.52;;
64387;SDS011;50709;52.648;4.764;2022-08-19T00:07:46;13.57;;;7.75;;
64387;SDS011;50709;52.648;4.764;2022-08-19T00:10:12;13.88;;;8.05;;
64387;SDS011;50709;52.648;4.764;2022-08-19T00:12:40;15.20;;;8.15;;
64387;SDS011;50709;52.648;4.764;2022-08-19T00:15:06;13.32;;;7.93;;
64387;SDS011;50709;52.648;4.764;2022-08-19T00:17:36;14.80;;;7.93;;
64387;SDS011;50709;52.648;4.764;2022-08-19T00:20:03;15.43;;;8.77;;
64387;SDS011;50709;52.648;4.764;2022-08-19T00:22:28;12.90;;;8.15;;
64387;SDS011;50709;52.648;4.764;2022-08-19T00:24:54;13.63;;;7.78;;
64387;SDS011;50709;52.648;4.764;2022-08-19T00:27:19;14.82;;;7.72;;
64387;SDS011;50709;52.648;4.764;2022-08-19T00:29:44;15.18;;;8.30;;
64387;SDS011;50709;52.648;4.764;2022-08-19T00:32:10;14.27;;;7.70;;
64387;SDS011;50709;52.648;4.764;2022-08-19T00:34:36;12.82;;;8.05;;
64387;SDS011;50709;52.648;4.764;2022-08-19T00:37:02;12.68;;;7.03;;
64387;SDS011;50709;52.648;4.764;2022-08-19T00:39:28;12.05;;;7.45;;
64387;SDS011;50709;52.648;4.764;2022-08-19T00:41:53;12.05;;;7.38;;
64387;SDS011;50709;52.648;4.764;2022-08-19T00:44:20;12.18;;;7.45;;
64387;SDS011;50709;52.648;4.764;2022-08-19T00:46:50;16.25;;;7.72;;
64387;SDS011;50709;52.648;4.764;2022-08-19T00:49:25;15.20;;;9.10;;
64387;SDS011;50709;52.648;4.764;2022-08-19T00:52:03;13.30;;;8.05;;
64387;SDS011;50709;52.648;4.764;2022-08-19T00:54:31;12.75;;;8.50;;
64387;SDS011;50709;52.648;4.764;2022-08-19T00:56:58;16.08;;;8.70;;
64387;SDS011;50709;52.648;4.764;2022-08-19T00:59:26;14.30;;;8.25;;
64387;SDS011;50709;52.648;4.764;2022-08-19T01:01:53;17.45;;;9.35;;
64387;SDS011;50709;52.648;4.764;2022-08-19T01:04:18;15.88;;;8.52;;
64387;SDS011;50709;52.648;4.764;2022-08-19T01:06:44;13.55;;;8.07;;
64387;SDS011;50709;52.648;4.764;2022-08-19T01:09:09;15.95;;;9.15;;
64387;SDS011;50709;52.648;4.764;2022-08-19T01:11:36;13.40;;;8.15;;
64387;SDS011;50709;52.648;4.764;2022-08-19T01:14:05;14.80;;;8.48;;
64387;SDS011;50709;52.648;4.764;2022-08-19T01:16:32;15.20;;;8.32;;
64387;SDS011;50709;52.648;4.764;2022-08-19T01:18:59;14.07;;;8.38;;
64387;SDS011;50709;52.648;4.764;2022-08-19T01:24:01;13.68;;;8.45;;
64387;SDS011;50709;52.648;4.764;2022-08-19T01:26:27;15.90;;;8.43;;
64387;SDS011;50709;52.648;4.764;2022-08-19T01:28:54;15.10;;;8.73;;
64387;SDS011;50709;52.648;4.764;2022-08-19T01:31:23;18.17;;;9.95;;
64387;SDS011;50709;52.648;4.764;2022-08-19T01:33:52;17.15;;;9.00;;
64387;SDS011;50709;52.648;4.764;2022-08-19T01:36:23;15.48;;;8.82;;
64387;SDS011;50709;52.648;4.764;2022-08-19T01:38:53;15.15;;;8.52;;
64387;SDS011;50709;52.648;4.764;2022-08-19T01:41:19;16.42;;;8.70;;
64387;SDS011;50709;52.648;4.764;2022-08-19T01:43:48;14.40;;;8.60;;
64387;SDS011;50709;52.648;4.764;2022-08-19T01:46:14;14.73;;;8.88;;
64387;SDS011;50709;52.648;4.764;2022-08-19T01:48:40;19.90;;;10.77;;
64387;SDS011;50709;52.648;4.764;2022-08-19T01:51:09;16.60;;;9.27;;
64387;SDS011;50709;52.648;4.764;2022-08-19T01:53:35;20.00;;;10.23;;
64387;SDS011;50709;52.648;4.764;2022-08-19T01:56:01;16.58;;;9.02;;
64387;SDS011;50709;52.648;4.764;2022-08-19T01:58:29;19.83;;;10.07;;
64387;SDS011;50709;52.648;4.764;2022-08-19T02:01:02;18.58;;;10.20;;
64387;SDS011;50709;52.648;4.764;2022-08-19T02:03:28;22.02;;;11.73;;
64387;SDS011;50709;52.648;4.764;2022-08-19T02:05:58;23.17;;;11.07;;
64387;SDS011;50709;52.648;4.764;2022-08-19T02:08:29;16.92;;;9.52;;
64387;SDS011;50709;52.648;4.764;2022-08-19T02:10:55;18.65;;;10.18;;
64387;SDS011;50709;52.648;4.764;2022-08-19T02:13:21;19.13;;;10.63;;
64387;SDS011;50709;52.648;4.764;2022-08-19T02:15:47;20.10;;;10.02;;
64387;SDS011;50709;52.648;4.764;2022-08-19T02:18:13;17.88;;;10.10;;
64387;SDS011;50709;52.648;4.764;2022-08-19T02:20:40;23.67;;;11.38;;
64387;SDS011;50709;52.648;4.764;2022-08-19T02:23:07;19.70;;;10.77;;
64387;SDS011;50709;52.648;4.764;2022-08-19T02:25:33;18.40;;;10.25;;
64387;SDS011;50709;52.648;4.764;2022-08-19T02:27:58;20.20;;;11.10;;
64387;SDS011;50709;52.648;4.764;2022-08-19T02:30:24;20.63;;;10.90;;
64387;SDS011;50709;52.648;4.764;2022-08-19T02:32:50;20.35;;;10.77;;
64387;SDS011;50709;52.648;4.764;2022-08-19T02:35:16;24.05;;;11.57;;
64387;SDS011;50709;52.648;4.764;2022-08-19T02:37:42;24.05;;;12.27;;
64387;SDS011;50709;52.648;4.764;2022-08-19T02:40:27;22.27;;;11.80;;
64387;SDS011;50709;52.648;4.764;2022-08-19T02:42:54;20.92;;;11.50;;
64387;SDS011;50709;52.648;4.764;2022-08-19T02:45:19;29.08;;;13.68;;
64387;SDS011;50709;52.648;4.764;2022-08-19T02:47:45;24.05;;;12.63;;
64387;SDS011;50709;52.648;4.764;2022-08-19T02:50:11;30.38;;;13.00;;
64387;SDS011;50709;52.648;4.764;2022-08-19T02:52:36;21.23;;;12.10;;
64387;SDS011;50709;52.648;4.764;2022-08-19T02:55:02;24.75;;;11.70;;
64387;SDS011;50709;52.648;4.764;2022-08-19T02:57:29;29.02;;;13.88;;
64387;SDS011;50709;52.648;4.764;2022-08-19T02:59:56;23.70;;;12.93;;
64387;SDS011;50709;52.648;4.764;2022-08-19T03:02:22;25.30;;;12.40;;
64387;SDS011;50709;52.648;4.764;2022-08-19T03:04:47;24.90;;;12.55;;
64387;SDS011;50709;52.648;4.764;2022-08-19T03:07:13;28.48;;;14.18;;
64387;SDS011;50709;52.648;4.764;2022-08-19T03:09:40;25.52;;;12.90;;
64387;SDS011;50709;52.648;4.764;2022-08-19T03:12:08;24.73;;;12.38;;
64387;SDS011;50709;52.648;4.764;2022-08-19T03:14:34;25.67;;;13.23;;
64387;SDS011;50709;52.648;4.764;2022-08-19T03:17:00;23.35;;;12.38;;
64387;SDS011;50709;52.648;4.764;2022-08-19T03:19:26;28.63;;;15.70;;
64387;SDS011;50709;52.648;4.764;2022-08-19T03:21:52;26.45;;;12.90;;
64387;SDS011;50709;52.648;4.764;2022-08-19T03:24:18;29.40;;;13.27;;
64387;SDS011;50709;52.648;4.764;2022-08-19T03:26:46;25.15;;;12.95;;
64387;SDS011;50709;52.648;4.764;2022-08-19T03:29:13;23.92;;;13.05;;
64387;SDS011;50709;52.648;4.764;2022-08-19T03:31:40;23.63;;;12.90;;
64387;SDS011;50709;52.648;4.764;2022-08-19T03:34:06;26.55;;;13.55;;
64387;SDS011;50709;52.648;4.764;2022-08-19T03:36:32;28.17;;;13.77;;
64387;SDS011;50709;52.648;4.764;2022-08-19T03:38:59;29.83;;;14.02;;
64387;SDS011;50709;52.648;4.764;2022-08-19T03:41:36;24.80;;;12.80;;
64387;SDS011;50709;52.648;4.764;2022-08-19T03:44:04;25.50;;;12.70;;
64387;SDS011;50709;52.648;4.764;2022-08-19T03:46:31;30.70;;;14.93;;
64387;SDS011;50709;52.648;4.764;2022-08-19T03:48:58;25.50;;;13.63;;
64387;SDS011;50709;52.648;4.764;2022-08-19T03:53:59;26.00;;;12.85;;
64387;SDS011;50709;52.648;4.764;2022-08-19T03:56:26;28.35;;;14.13;;
64387;SDS011;50709;52.648;4.764;2022-08-19T03:58:57;29.08;;;14.80;;
64387;SDS011;50709;52.648;4.764;2022-08-19T04:01:25;23.70;;;13.13;;
64387;SDS011;50709;52.648;4.764;2022-08-19T04:03:52;32.28;;;15.05;;
64387;SDS011;50709;52.648;4.764;2022-08-19T04:06:20;28.20;;;14.23;;
64387;SDS011;50709;52.648;4.764;2022-08-19T04:08:48;26.38;;;13.52;;
64387;SDS011;50709;52.648;4.764;2022-08-19T04:11:16;30.27;;;14.77;;
64387;SDS011;50709;52.648;4.764;2022-08-19T04:13:45;28.30;;;14.02;;
64387;SDS011;50709;52.648;4.764;2022-08-19T04:16:11;28.15;;;14.05;;
64387;SDS011;50709;52.648;4.764;2022-08-19T04:18:37;25.58;;;13.23;;
64387;SDS011;50709;52.648;4.764;2022-08-19T04:21:04;29.38;;;14.05;;
64387;SDS011;50709;52.648;4.764;2022-08-19T04:23:30;25.05;;;12.73;;
64387;SDS011;50709;52.648;4.764;2022-08-19T04:25:56;28.55;;;14.13;;
64387;SDS011;50709;52.648;4.764;2022-08-19T04:28:22;31.17;;;15.77;;
64387;SDS011;50709;52.648;4.764;2022-08-19T04:30:50;32.53;;;16.15;;
64387;SDS011;50709;52.648;4.764;2022-08-19T04:33:20;34.58;;;16.65;;
64387;SDS011;50709;52.648;4.764;2022-08-19T04:35:48;37.70;;;16.77;;
64387;SDS011;50709;52.648;4.764;2022-08-19T04:38:16;42.53;;;19.52;;
64387;SDS011;50709;52.648;4.764;2022-08-19T04:40:45;43.50;;;20.10;;
64387;SDS011;50709;52.648;4.764;2022-08-19T04:43:31;42.72;;;19.80;;
64387;SDS011;50709;52.648;4.764;2022-08-19T04:45:58;46.05;;;20.52;;
64387;SDS011;50709;52.648;4.764;2022-08-19T04:48:23;46.35;;;21.00;;
64387;SDS011;50709;52.648;4.764;2022-08-19T04:50:52;40.78;;;18.73;;
64387;SDS011;50709;52.648;4.764;2022-08-19T04:53:23;41.53;;;18.67;;
64387;SDS011;50709;52.648;4.764;2022-08-19T04:55:49;41.28;;;18.55;;
64387;SDS011;50709;52.648;4.764;2022-08-19T04:58:15;39.28;;;18.58;;
64387;SDS011;50709;52.648;4.764;2022-08-19T05:00:41;38.85;;;17.63;;
64387;SDS011;50709;52.648;4.764;2022-08-19T05:03:06;44.67;;;21.05;;
64387;SDS011;50709;52.648;4.764;2022-08-19T05:05:33;39.78;;;19.08;;
64387;SDS011;50709;52.648;4.764;2022-08-19T05:07:58;47.97;;;20.35;;
64387;SDS011;50709;52.648;4.764;2022-08-19T05:10:24;45.30;;;20.40;;
64387;SDS011;50709;52.648;4.764;2022-08-19T05:12:49;52.15;;;22.40;;
64387;SDS011;50709;52.648;4.764;2022-08-19T05:15:14;48.65;;;20.08;;
64387;SDS011;50709;52.648;4.764;2022-08-19T05:17:40;45.95;;;20.75;;
64387;SDS011;50709;52.648;4.764;2022-08-19T05:20:25;45.30;;;19.48;;
64387;SDS011;50709;52.648;4.764;2022-08-19T05:23:10;47.22;;;21.75;;
64387;SDS011;50709;52.648;4.764;2022-08-19T05:25:38;49.95;;;21.00;;
64387;SDS011;50709;52.648;4.764;2022-08-19T05:28:05;49.10;;;20.92;;
64387;SDS011;50709;52.648;4.764;2022-08-19T05:30:30;43.33;;;19.80;;
64387;SDS011;50709;52.648;4.764;2022-08-19T05:32:55;47.60;;;19.65;;
64387;SDS011;50709;52.648;4.764;2022-08-19T05:35:21;50.75;;;21.20;;
64387;SDS011;50709;52.648;4.764;2022-08-19T05:37:49;49.60;;;20.95;;
64387;SDS011;50709;52.648;4.764;2022-08-19T05:40:14;51.08;;;21.10;;
64387;SDS011;50709;52.648;4.764;2022-08-19T05:42:39;47.65;;;20.05;;
64387;SDS011;50709;52.648;4.764;2022-08-19T05:45:05;46.92;;;19.38;;
64387;SDS011;50709;52.648;4.764;2022-08-19T05:47:31;48.03;;;19.63;;
64387;SDS011;50709;52.648;4.764;2022-08-19T05:49:57;47.75;;;20.35;;
64387;SDS011;50709;52.648;4.764;2022-08-19T05:52:22;47.25;;;20.75;;
64387;SDS011;50709;52.648;4.764;2022-08-19T05:54:47;47.03;;;19.73;;
64387;SDS011;50709;52.648;4.764;2022-08-19T05:57:13;51.97;;;21.80;;
64387;SDS011;50709;52.648;4.764;2022-08-19T05:59:39;48.65;;;21.52;;
64387;SDS011;50709;52.648;4.764;2022-08-19T06:02:05;47.55;;;20.88;;
64387;SDS011;50709;52.648;4.764;2022-08-19T06:04:31;45.42;;;18.90;;
64387;SDS011;50709;52.648;4.764;2022-08-19T06:06:57;45.25;;;20.40;;
64387;SDS011;50709;52.648;4.764;2022-08-19T06:09:23;40.17;;;18.88;;
64387;SDS011;50709;52.648;4.764;2022-08-19T06:11:55;48.30;;;20.15;;
64387;SDS011;50709;52.648;4.764;2022-08-19T06:14:25;43.28;;;19.38;;
64387;SDS011;50709;52.648;4.764;2022-08-19T06:16:55;42.92;;;19.55;;
64387;SDS011;50709;52.648;4.764;2022-08-19T06:19:21;55.05;;;23.08;;
64387;SDS011;50709;52.648;4.764;2022-08-19T06:21:49;46.25;;;19.40;;
64387;SDS011;50709;52.648;4.764;2022-08-19T06:24:18;58.45;;;22.35;;
64387;SDS011;50709;52.648;4.764;2022-08-19T06:26:48;45.20;;;18.37;;
64387;SDS011;50709;52.648;4.764;2022-08-19T06:29:14;41.35;;;18.65;;
64387;SDS011;50709;52.648;4.764;2022-08-19T06:31:42;44.67;;;18.70;;
64387;SDS011;50709;52.648;4.764;2022-08-19T06:34:09;45.95;;;18.23;;
64387;SDS011;50709;52.648;4.764;2022-08-19T06:36:36;39.90;;;16.90;;
64387;SDS011;50709;52.648;4.764;2022-08-19T06:39:04;46.80;;;18.65;;
64387;SDS011;50709;52.648;4.764;2022-08-19T07:13:37;42.20;;;17.50;;
64387;SDS011;50709;52.648;4.764;2022-08-19T07:16:05;43.70;;;14.30;;
64387;SDS011;50709;52.648;4.764;2022-08-19T07:23:29;31.00;;;12.80;;
64387;SDS011;50709;52.648;4.764;2022-08-19T07:25:54;31.75;;;12.88;;
64387;SDS011;50709;52.648;4.764;2022-08-19T07:35:35;34.50;;;13.90;;
64387;SDS011;50709;52.648;4.764;2022-08-19T07:38:00;28.95;;;12.60;;
64387;SDS011;50709;52.648;4.764;2022-08-19T07:40:28;28.77;;;11.73;;
64387;SDS011;50709;52.648;4.764;2022-08-19T07:42:53;26.25;;;13.38;;
64387;SDS011;50709;52.648;4.764;2022-08-19T07:45:19;42.20;;;13.70;;
64387;SDS011;50709;52.648;4.764;2022-08-19T07:47:44;33.05;;;13.13;;
64387;SDS011;50709;52.648;4.764;2022-08-19T07:50:10;32.10;;;12.57;;
64387;SDS011;50709;52.648;4.764;2022-08-19T07:52:37;28.20;;;12.40;;
64387;SDS011;50709;52.648;4.764;2022-08-19T07:55:04;29.67;;;12.27;;
64387;SDS011;50709;52.648;4.764;2022-08-19T07:57:31;35.33;;;13.65;;
64387;SDS011;50709;52.648;4.764;2022-08-19T07:59:56;37.97;;;12.93;;
64387;SDS011;50709;52.648;4.764;2022-08-19T08:04:47;34.45;;;14.45;;
64387;SDS011;50709;52.648;4.764;2022-08-19T08:07:30;32.33;;;14.48;;
64387;SDS011;50709;52.648;4.764;2022-08-19T08:10:14;32.95;;;14.57;;
64387;SDS011;50709;52.648;4.764;2022-08-19T08:12:40;42.83;;;17.42;;
64387;SDS011;50709;52.648;4.764;2022-08-19T08:15:08;30.17;;;12.65;;
64387;SDS011;50709;52.648;4.764;2022-08-19T08:17:37;29.27;;;13.50;;
64387;SDS011;50709;52.648;4.764;2022-08-19T08:20:04;43.22;;;16.75;;
64387;SDS011;50709;52.648;4.764;2022-08-19T08:22:34;39.57;;;15.20;;
64387;SDS011;50709;52.648;4.764;2022-08-19T08:25:19;34.53;;;14.05;;
64387;SDS011;50709;52.648;4.764;2022-08-19T08:27:47;33.55;;;14.10;;
64387;SDS011;50709;52.648;4.764;2022-08-19T08:30:18;32.38;;;13.77;;
64387;SDS011;50709;52.648;4.764;2022-08-19T08:32:45;36.50;;;13.43;;
64387;SDS011;50709;52.648;4.764;2022-08-19T08:35:12;34.97;;;13.43;;
64387;SDS011;50709;52.648;4.764;2022-08-19T08:37:41;32.42;;;13.38;;
64387;SDS011;50709;52.648;4.764;2022-08-19T08:40:10;31.73;;;12.13;;
64387;SDS011;50709;52.648;4.764;2022-08-19T08:42:48;40.28;;;13.98;;
64387;SDS011;50709;52.648;4.764;2022-08-19T08:45:36;35.90;;;13.30;;
64387;SDS011;50709;52.648;4.764;2022-08-19T08:48:19;36.53;;;13.95;;
64387;SDS011;50709;52.648;4.764;2022-08-19T08:50:49;34.70;;;13.75;;
64387;SDS011;50709;52.648;4.764;2022-08-19T08:53:18;34.88;;;15.50;;
64387;SDS011;50709;52.648;4.764;2022-08-19T08:55:45;26.95;;;11.77;;
64387;SDS011;50709;52.648;4.764;2022-08-19T08:58:13;29.35;;;12.52;;
64387;SDS011;50709;52.648;4.764;2022-08-19T09:00:46;35.17;;;13.00;;
64387;SDS011;50709;52.648;4.764;2022-08-19T09:03:18;32.17;;;13.07;;
64387;SDS011;50709;52.648;4.764;2022-08-19T09:10:52;30.17;;;12.52;;
64387;SDS011;50709;52.648;4.764;2022-08-19T09:16:10;36.35;;;12.00;;
64387;SDS011;50709;52.648;4.764;2022-08-19T09:18:49;24.10;;;11.83;;
64387;SDS011;50709;52.648;4.764;2022-08-19T09:21:18;25.92;;;11.23;;
64387;SDS011;50709;52.648;4.764;2022-08-19T09:23:45;29.25;;;11.45;;
64387;SDS011;50709;52.648;4.764;2022-08-19T09:26:11;28.33;;;11.27;;
64387;SDS011;50709;52.648;4.764;2022-08-19T09:28:42;29.75;;;11.50;;
64387;SDS011;50709;52.648;4.764;2022-08-19T09:31:29;24.60;;;10.88;;
64387;SDS011;50709;52.648;4.764;2022-08-19T09:33:54;31.30;;;11.68;;
64387;SDS011;50709;52.648;4.764;2022-08-19T09:36:24;26.75;;;11.40;;
64387;SDS011;50709;52.648;4.764;2022-08-19T09:38:53;27.85;;;12.68;;
64387;SDS011;50709;52.648;4.764;2022-08-19T09:41:22;28.42;;;11.95;;
64387;SDS011;50709;52.648;4.764;2022-08-19T09:43:50;26.65;;;12.00;;
64387;SDS011;50709;52.648;4.764;2022-08-19T09:46:18;32.25;;;10.77;;
64387;SDS011;50709;52.648;4.764;2022-08-19T09:48:46;30.02;;;11.60;;
64387;SDS011;50709;52.648;4.764;2022-08-19T09:51:13;22.27;;;10.40;;
64387;SDS011;50709;52.648;4.764;2022-08-19T09:53:41;19.05;;;10.63;;
64387;SDS011;50709;52.648;4.764;2022-08-19T09:56:08;25.30;;;11.77;;
64387;SDS011;50709;52.648;4.764;2022-08-19T09:58:34;24.30;;;10.85;;
64387;SDS011;50709;52.648;4.764;2022-08-19T10:01:01;26.42;;;11.25;;
64387;SDS011;50709;52.648;4.764;2022-08-19T10:03:29;24.13;;;10.60;;
64387;SDS011;50709;52.648;4.764;2022-08-19T10:05:56;25.20;;;10.25;;
64387;SDS011;50709;52.648;4.764;2022-08-19T10:08:25;19.98;;;10.07;;
64387;SDS011;50709;52.648;4.764;2022-08-19T10:10:52;20.83;;;10.63;;
64387;SDS011;50709;52.648;4.764;2022-08-19T10:13:19;17.65;;;7.72;;
64387;SDS011;50709;52.648;4.764;2022-08-19T10:15:48;23.98;;;8.90;;
64387;SDS011;50709;52.648;4.764;2022-08-19T10:18:16;23.30;;;9.00;;
64387;SDS011;50709;52.648;4.764;2022-08-19T10:20:42;27.05;;;12.27;;
64387;SDS011;50709;52.648;4.764;2022-08-19T10:23:10;28.58;;;10.55;;
64387;SDS011;50709;52.648;4.764;2022-08-19T10:25:36;27.15;;;10.57;;
64387;SDS011;50709;52.648;4.764;2022-08-19T10:28:02;30.05;;;12.18;;
64387;SDS011;50709;52.648;4.764;2022-08-19T10:30:28;25.88;;;9.88;;
64387;SDS011;50709;52.648;4.764;2022-08-19T10:32:54;25.20;;;10.88;;
64387;SDS011;50709;52.648;4.764;2022-08-19T10:35:19;35.58;;;11.18;;
64387;SDS011;50709;52.648;4.764;2022-08-19T10:37:45;26.90;;;10.82;;
64387;SDS011;50709;52.648;4.764;2022-08-19T10:40:10;26.50;;;11.82;;
64387;SDS011;50709;52.648;4.764;2022-08-19T10:42:36;23.73;;;11.82;;
64387;SDS011;50709;52.648;4.764;2022-08-19T10:45:02;35.05;;;12.00;;
64387;SDS011;50709;52.648;4.764;2022-08-19T10:47:31;27.33;;;12.18;;
64387;SDS011;50709;52.648;4.764;2022-08-19T10:49:57;21.08;;;10.32;;
64387;SDS011;50709;52.648;4.764;2022-08-19T10:52:42;23.50;;;10.70;;
64387;SDS011;50709;52.648;4.764;2022-08-19T10:55:09;24.73;;;11.45;;
64387;SDS011;50709;52.648;4.764;2022-08-19T10:58:00;25.88;;;10.93;;
64387;SDS011;50709;52.648;4.764;2022-08-19T11:00:26;19.73;;;10.43;;
64387;SDS011;50709;52.648;4.764;2022-08-19T11:02:52;21.60;;;10.60;;
64387;SDS011;50709;52.648;4.764;2022-08-19T11:05:17;22.80;;;10.55;;
64387;SDS011;50709;52.648;4.764;2022-08-19T11:07:44;24.25;;;10.25;;
64387;SDS011;50709;52.648;4.764;2022-08-19T11:10:10;23.77;;;9.27;;
64387;SDS011;50709;52.648;4.764;2022-08-19T11:12:38;24.88;;;9.85;;
64387;SDS011;50709;52.648;4.764;2022-08-19T11:15:08;20.40;;;9.30;;
64387;SDS011;50709;52.648;4.764;2022-08-19T11:17:35;21.05;;;9.68;;
64387;SDS011;50709;52.648;4.764;2022-08-19T11:20:05;22.50;;;8.75;;
64387;SDS011;50709;52.648;4.764;2022-08-19T11:22:31;21.10;;;8.60;;
64387;SDS011;50709;52.648;4.764;2022-08-19T11:24:57;16.80;;;8.15;;
64387;SDS011;50709;52.648;4.764;2022-08-19T11:27:22;22.17;;;9.20;;
64387;SDS011;50709;52.648;4.764;2022-08-19T11:29:47;16.80;;;7.93;;
64387;SDS011;50709;52.648;4.764;2022-08-19T11:32:13;18.57;;;9.87;;
64387;SDS011;50709;52.648;4.764;2022-08-19T11:34:39;18.80;;;8.48;;
64387;SDS011;50709;52.648;4.764;2022-08-19T11:37:04;17.17;;;9.68;;
64387;SDS011;50709;52.648;4.764;2022-08-19T11:39:31;16.65;;;8.30;;
64387;SDS011;50709;52.648;4.764;2022-08-19T11:41:57;18.83;;;7.75;;
64387;SDS011;50709;52.648;4.764;2022-08-19T11:44:24;15.13;;;8.40;;
64387;SDS011;50709;52.648;4.764;2022-08-19T11:46:50;20.23;;;8.52;;
64387;SDS011;50709;52.648;4.764;2022-08-19T11:49:17;20.50;;;9.10;;
64387;SDS011;50709;52.648;4.764;2022-08-19T11:51:44;17.90;;;7.60;;
64387;SDS011;50709;52.648;4.764;2022-08-19T11:54:10;14.57;;;7.38;;
64387;SDS011;50709;52.648;4.764;2022-08-19T11:56:41;16.88;;;7.60;;
64387;SDS011;50709;52.648;4.764;2022-08-19T11:59:07;16.75;;;7.97;;
64387;SDS011;50709;52.648;4.764;2022-08-19T12:01:32;17.52;;;8.40;;
64387;SDS011;50709;52.648;4.764;2022-08-19T12:03:59;15.32;;;7.35;;
64387;SDS011;50709;52.648;4.764;2022-08-19T12:06:26;21.23;;;8.50;;
64387;SDS011;50709;52.648;4.764;2022-08-19T12:08:57;15.73;;;8.70;;
64387;SDS011;50709;52.648;4.764;2022-08-19T12:11:25;16.33;;;7.97;;
64387;SDS011;50709;52.648;4.764;2022-08-19T12:13:51;15.80;;;7.32;;
64387;SDS011;50709;52.648;4.764;2022-08-19T12:16:19;14.43;;;8.27;;
64387;SDS011;50709;52.648;4.764;2022-08-19T12:18:48;18.70;;;8.43;;
64387;SDS011;50709;52.648;4.764;2022-08-19T12:21:16;16.75;;;7.38;;
64387;SDS011;50709;52.648;4.764;2022-08-19T12:23:46;22.40;;;9.27;;
64387;SDS011;50709;52.648;4.764;2022-08-19T12:26:13;18.15;;;7.90;;
64387;SDS011;50709;52.648;4.764;2022-08-19T12:28:39;16.25;;;7.75;;
64387;SDS011;50709;52.648;4.764;2022-08-19T12:31:04;16.77;;;8.15;;
64387;SDS011;50709;52.648;4.764;2022-08-19T12:33:30;16.10;;;8.35;;
64387;SDS011;50709;52.648;4.764;2022-08-19T12:36:00;24.33;;;12.43;;
64387;SDS011;50709;52.648;4.764;2022-08-19T12:38:30;25.13;;;12.63;;
64387;SDS011;50709;52.648;4.764;2022-08-19T12:40:57;23.70;;;10.50;;
64387;SDS011;50709;52.648;4.764;2022-08-19T12:43:23;24.25;;;12.10;;
64387;SDS011;50709;52.648;4.764;2022-08-19T12:45:48;20.20;;;9.55;;
64387;SDS011;50709;52.648;4.764;2022-08-19T12:48:13;21.83;;;9.57;;
64387;SDS011;50709;52.648;4.764;2022-08-19T12:50:42;20.05;;;9.73;;
64387;SDS011;50709;52.648;4.764;2022-08-19T12:53:12;18.27;;;8.80;;
64387;SDS011;50709;52.648;4.764;2022-08-19T12:55:38;20.38;;;9.23;;
64387;SDS011;50709;52.648;4.764;2022-08-19T12:58:04;17.73;;;9.43;;
64387;SDS011;50709;52.648;4.764;2022-08-19T13:00:29;19.37;;;8.60;;
64387;SDS011;50709;52.648;4.764;2022-08-19T13:02:57;14.15;;;8.02;;
64387;SDS011;50709;52.648;4.764;2022-08-19T13:05:24;16.55;;;8.02;;
64387;SDS011;50709;52.648;4.764;2022-08-19T13:07:52;14.18;;;7.38;;
64387;SDS011;50709;52.648;4.764;2022-08-19T13:10:22;15.95;;;7.65;;
64387;SDS011;50709;52.648;4.764;2022-08-19T13:12:50;13.77;;;7.63;;
64387;SDS011;50709;52.648;4.764;2022-08-19T13:15:17;16.08;;;7.60;;
64387;SDS011;50709;52.648;4.764;2022-08-19T13:17:45;14.50;;;6.72;;
64387;SDS011;50709;52.648;4.764;2022-08-19T13:20:13;11.80;;;6.15;;
64387;SDS011;50709;52.648;4.764;2022-08-19T13:22:39;13.52;;;6.90;;
64387;SDS011;50709;52.648;4.764;2022-08-19T13:25:06;13.70;;;7.22;;
64387;SDS011;50709;52.648;4.764;2022-08-19T13:27:32;12.85;;;6.22;;
64387;SDS011;50709;52.648;4.764;2022-08-19T13:29:58;10.52;;;6.18;;
64387;SDS011;50709;52.648;4.764;2022-08-19T13:32:42;14.45;;;6.22;;
64387;SDS011;50709;52.648;4.764;2022-08-19T13:35:26;10.68;;;7.00;;
64387;SDS011;50709;52.648;4.764;2022-08-19T13:37:51;11.18;;;5.80;;
64387;SDS011;50709;52.648;4.764;2022-08-19T13:40:18;11.43;;;5.40;;
64387;SDS011;50709;52.648;4.764;2022-08-19T13:42:48;12.27;;;6.05;;
64387;SDS011;50709;52.648;4.764;2022-08-19T13:45:16;9.93;;;5.03;;
64387;SDS011;50709;52.648;4.764;2022-08-19T13:47:45;10.65;;;5.25;;
64387;SDS011;50709;52.648;4.764;2022-08-19T13:50:12;10.38;;;5.25;;
64387;SDS011;50709;52.648;4.764;2022-08-19T13:52:41;11.13;;;5.30;;
64387;SDS011;50709;52.648;4.764;2022-08-19T13:55:07;9.13;;;4.95;;
64387;SDS011;50709;52.648;4.764;2022-08-19T13:57:34;8.60;;;5.10;;
64387;SDS011;50709;52.648;4.764;2022-08-19T14:00:07;10.18;;;4.65;;
64387;SDS011;50709;52.648;4.764;2022-08-19T14:02:38;9.48;;;5.18;;
64387;SDS011;50709;52.648;4.764;2022-08-19T14:05:05;11.73;;;4.82;;
64387;SDS011;50709;52.648;4.764;2022-08-19T14:07:32;9.68;;;4.53;;
64387;SDS011;50709;52.648;4.764;2022-08-19T14:09:57;6.32;;;4.40;;
64387;SDS011;50709;52.648;4.764;2022-08-19T14:12:23;10.52;;;4.80;;
64387;SDS011;50709;52.648;4.764;2022-08-19T14:14:49;9.88;;;4.95;;
64387;SDS011;50709;52.648;4.764;2022-08-19T14:17:14;9.38;;;5.18;;
64387;SDS011;50709;52.648;4.764;2022-08-19T14:19:40;6.88;;;4.82;;
64387;SDS011;50709;52.648;4.764;2022-08-19T14:22:06;10.57;;;5.00;;
64387;SDS011;50709;52.648;4.764;2022-08-19T14:24:31;8.65;;;4.80;;
64387;SDS011;50709;52.648;4.764;2022-08-19T14:26:57;9.13;;;4.85;;
64387;SDS011;50709;52.648;4.764;2022-08-19T14:29:24;7.57;;;4.47;;
64387;SDS011;50709;52.648;4.764;2022-08-19T14:31:49;11.88;;;5.35;;
64387;SDS011;50709;52.648;4.764;2022-08-19T14:34:15;7.45;;;4.85;;
64387;SDS011;50709;52.648;4.764;2022-08-19T14:36:40;8.40;;;5.03;;
64387;SDS011;50709;52.648;4.764;2022-08-19T14:39:06;10.57;;;4.75;;
64387;SDS011;50709;52.648;4.764;2022-08-19T14:41:33;8.48;;;5.00;;
64387;SDS011;50709;52.648;4.764;2022-08-19T14:43:58;8.02;;;4.72;;
64387;SDS011;50709;52.648;4.764;2022-08-19T14:46:25;8.30;;;4.75;;
64387;SDS011;50709;52.648;4.764;2022-08-19T14:48:53;11.05;;;6.13;;
64387;SDS011;50709;52.648;4.764;2022-08-19T14:51:19;11.45;;;5.20;;
64387;SDS011;50709;52.648;4.764;2022-08-19T14:53:46;9.55;;;5.05;;
64387;SDS011;50709;52.648;4.764;2022-08-19T14:56:15;8.25;;;4.65;;
64387;SDS011;50709;52.648;4.764;2022-08-19T14:58:43;9.98;;;5.13;;
64387;SDS011;50709;52.648;4.764;2022-08-19T15:01:10;9.95;;;5.40;;
64387;SDS011;50709;52.648;4.764;2022-08-19T15:03:36;12.40;;;5.05;;
64387;SDS011;50709;52.648;4.764;2022-08-19T15:06:03;10.38;;;4.82;;
64387;SDS011;50709;52.648;4.764;2022-08-19T15:08:30;11.63;;;5.63;;
64387;SDS011;50709;52.648;4.764;2022-08-19T15:10:57;8.75;;;4.85;;
64387;SDS011;50709;52.648;4.764;2022-08-19T15:13:23;10.82;;;5.22;;
64387;SDS011;50709;52.648;4.764;2022-08-19T15:15:49;9.60;;;4.95;;
64387;SDS011;50709;52.648;4.764;2022-08-19T15:18:16;8.55;;;4.82;;
64387;SDS011;50709;52.648;4.764;2022-08-19T15:20:42;8.88;;;5.50;;
64387;SDS011;50709;52.648;4.764;2022-08-19T15:23:08;10.70;;;5.43;;
64387;SDS011;50709;52.648;4.764;2022-08-19T15:25:35;11.25;;;5.45;;
64387;SDS011;50709;52.648;4.764;2022-08-19T15:28:01;10.10;;;5.38;;
64387;SDS011;50709;52.648;4.764;2022-08-19T15:30:28;9.45;;;5.07;;